sensor_id;sensor_type;location;lat;lon;timestamp;temperature;humidity
30288;DHT22;17103;48.316;11.558;2022-12-18T00:00:43;0.70;41.10
30288;DHT22;17103;48.316;11.558;2022-12-18T00:03:09;0.70;41.20
30288;DHT22;17103;48.316;11.558;2022-12-18T00:05:35;0.60;41.20
30288;DHT22;17103;48.316;11.558;2022-12-18T00:08:01;0.60;41.30
30288;DHT22;17103;48.316;11.558;2022-12-18T00:10:28;0.50;41.30
30288;DHT22;17103;48.316;11.558;2022-12-18T00:12:53;0.50;41.40
30288;DHT22;17103;48.316;11.558;2022-12-18T00:15:19;0.50;41.40
30288;DHT22;17103;48.316;11.558;2022-12-18T00:17:45;0.40;41.50
30288;DHT22;17103;48.316;11.558;2022-12-18T00:20:11;0.40;41.60
30288;DHT22;17103;48.316;11.558;2022-12-18T00:22:37;0.40;41.70
30288;DHT22;17103;48.316;11.558;2022-12-18T00:25:02;0.40;41.70
30288;DHT22;17103;48.316;11.558;2022-12-18T00:27:28;0.40;41.70
30288;DHT22;17103;48.316;11.558;2022-12-18T00:29:55;0.40;41.80
30288;DHT22;17103;48.316;11.558;2022-12-18T00:32:20;0.40;41.80
30288;DHT22;17103;48.316;11.558;2022-12-18T00:34:46;0.40;41.80
30288;DHT22;17103;48.316;11.558;2022-12-18T00:37:12;0.40;41.90
30288;DHT22;17103;48.316;11.558;2022-12-18T00:39:37;0.40;42.00
30288;DHT22;17103;48.316;11.558;2022-12-18T00:42:03;0.40;41.90
30288;DHT22;17103;48.316;11.558;2022-12-18T00:44:47;0.40;42.00
30288;DHT22;17103;48.316;11.558;2022-12-18T00:47:13;0.40;42.00
30288;DHT22;17103;48.316;11.558;2022-12-18T00:49:38;0.40;42.00
30288;DHT22;17103;48.316;11.558;2022-12-18T00:52:04;0.40;42.00
30288;DHT22;17103;48.316;11.558;2022-12-18T00:54:30;0.40;42.00
30288;DHT22;17103;48.316;11.558;2022-12-18T00:57:21;0.40;42.00
30288;DHT22;17103;48.316;11.558;2022-12-18T00:59:48;0.40;42.50
30288;DHT22;17103;48.316;11.558;2022-12-18T01:02:15;0.40;42.10
30288;DHT22;17103;48.316;11.558;2022-12-18T01:04:43;0.40;42.00
30288;DHT22;17103;48.316;11.558;2022-12-18T01:07:09;0.20;41.90
30288;DHT22;17103;48.316;11.558;2022-12-18T01:09:34;0.40;42.20
30288;DHT22;17103;48.316;11.558;2022-12-18T01:12:00;0.50;42.20
30288;DHT22;17103;48.316;11.558;2022-12-18T01:14:26;0.50;42.10
30288;DHT22;17103;48.316;11.558;2022-12-18T01:16:52;0.40;42.10
30288;DHT22;17103;48.316;11.558;2022-12-18T01:19:18;0.10;41.90
30288;DHT22;17103;48.316;11.558;2022-12-18T01:21:43;0.40;42.00
30288;DHT22;17103;48.316;11.558;2022-12-18T01:24:11;0.40;42.00
30288;DHT22;17103;48.316;11.558;2022-12-18T01:26:37;0.40;42.20
30288;DHT22;17103;48.316;11.558;2022-12-18T01:29:04;0.50;42.10
30288;DHT22;17103;48.316;11.558;2022-12-18T01:31:32;0.40;42.10
30288;DHT22;17103;48.316;11.558;2022-12-18T01:34:00;0.40;42.20
30288;DHT22;17103;48.316;11.558;2022-12-18T01:36:32;0.40;42.10
30288;DHT22;17103;48.316;11.558;2022-12-18T01:39:04;-0.10;41.90
30288;DHT22;17103;48.316;11.558;2022-12-18T01:41:32;0.40;42.10
30288;DHT22;17103;48.316;11.558;2022-12-18T01:45:21;0.50;42.10
30288;DHT22;17103;48.316;11.558;2022-12-18T01:50:16;0.50;42.10
30288;DHT22;17103;48.316;11.558;2022-12-18T01:52:55;0.50;42.20
30288;DHT22;17103;48.316;11.558;2022-12-18T01:55:24;0.50;42.20
30288;DHT22;17103;48.316;11.558;2022-12-18T01:57:57;0.50;42.20
30288;DHT22;17103;48.316;11.558;2022-12-18T02:00:26;0.50;42.20
30288;DHT22;17103;48.316;11.558;2022-12-18T02:02:53;0.50;42.20
30288;DHT22;17103;48.316;11.558;2022-12-18T02:05:46;0.50;42.20
30288;DHT22;17103;48.316;11.558;2022-12-18T02:13:39;0.50;42.10
30288;DHT22;17103;48.316;11.558;2022-12-18T02:21:57;0.50;42.60
30288;DHT22;17103;48.316;11.558;2022-12-18T02:24:35;0.50;42.20
30288;DHT22;17103;48.316;11.558;2022-12-18T02:27:06;0.50;42.20
30288;DHT22;17103;48.316;11.558;2022-12-18T02:29:52;0.50;42.20
30288;DHT22;17103;48.316;11.558;2022-12-18T02:32:24;0.50;42.20
30288;DHT22;17103;48.316;11.558;2022-12-18T02:34:51;0.50;42.20
30288;DHT22;17103;48.316;11.558;2022-12-18T02:37:18;0.50;42.30
30288;DHT22;17103;48.316;11.558;2022-12-18T02:39:47;0.40;42.20
30288;DHT22;17103;48.316;11.558;2022-12-18T02:42:13;0.40;42.20
30288;DHT22;17103;48.316;11.558;2022-12-18T02:44:47;0.50;42.30
30288;DHT22;17103;48.316;11.558;2022-12-18T02:47:17;0.40;42.30
30288;DHT22;17103;48.316;11.558;2022-12-18T03:00:23;0.40;42.40
30288;DHT22;17103;48.316;11.558;2022-12-18T03:05:49;0.40;42.50
30288;DHT22;17103;48.316;11.558;2022-12-18T03:08:28;0.40;42.50
30288;DHT22;17103;48.316;11.558;2022-12-18T03:13:27;0.40;42.50
30288;DHT22;17103;48.316;11.558;2022-12-18T03:15:55;0.40;42.50
30288;DHT22;17103;48.316;11.558;2022-12-18T03:18:41;0.40;42.50
30288;DHT22;17103;48.316;11.558;2022-12-18T03:21:09;0.40;42.50
30288;DHT22;17103;48.316;11.558;2022-12-18T03:23:48;0.40;42.50
30288;DHT22;17103;48.316;11.558;2022-12-18T03:26:17;0.40;42.60
30288;DHT22;17103;48.316;11.558;2022-12-18T03:29:48;0.40;42.60
30288;DHT22;17103;48.316;11.558;2022-12-18T03:31:57;0.40;42.70
30288;DHT22;17103;48.316;11.558;2022-12-18T03:34:30;0.40;42.50
30288;DHT22;17103;48.316;11.558;2022-12-18T03:36:57;0.40;42.60
30288;DHT22;17103;48.316;11.558;2022-12-18T03:39:23;0.40;42.70
30288;DHT22;17103;48.316;11.558;2022-12-18T03:42:04;0.30;42.60
30288;DHT22;17103;48.316;11.558;2022-12-18T03:47:19;0.30;42.80
30288;DHT22;17103;48.316;11.558;2022-12-18T03:50:12;0.30;42.80
30288;DHT22;17103;48.316;11.558;2022-12-18T03:52:48;0.30;42.90
30288;DHT22;17103;48.316;11.558;2022-12-18T03:55:15;0.30;42.90
30288;DHT22;17103;48.316;11.558;2022-12-18T03:57:42;0.30;43.00
30288;DHT22;17103;48.316;11.558;2022-12-18T04:00:13;0.30;43.00
30288;DHT22;17103;48.316;11.558;2022-12-18T04:02:45;0.30;43.10
30288;DHT22;17103;48.316;11.558;2022-12-18T04:05:12;0.30;43.10
30288;DHT22;17103;48.316;11.558;2022-12-18T04:07:39;0.30;43.10
30288;DHT22;17103;48.316;11.558;2022-12-18T04:10:07;0.30;43.10
30288;DHT22;17103;48.316;11.558;2022-12-18T04:12:33;0.30;43.10
30288;DHT22;17103;48.316;11.558;2022-12-18T04:14:59;0.30;43.10
30288;DHT22;17103;48.316;11.558;2022-12-18T04:17:25;0.40;43.20
30288;DHT22;17103;48.316;11.558;2022-12-18T04:19:50;-0.40;42.60
30288;DHT22;17103;48.316;11.558;2022-12-18T04:22:16;0.40;43.20
30288;DHT22;17103;48.316;11.558;2022-12-18T04:24:41;0.40;43.30
30288;DHT22;17103;48.316;11.558;2022-12-18T04:27:08;0.40;43.30
30288;DHT22;17103;48.316;11.558;2022-12-18T04:29:34;0.40;43.30
30288;DHT22;17103;48.316;11.558;2022-12-18T04:31:59;0.40;43.40
30288;DHT22;17103;48.316;11.558;2022-12-18T04:34:26;0.40;43.40
30288;DHT22;17103;48.316;11.558;2022-12-18T04:36:53;0.40;43.40
30288;DHT22;17103;48.316;11.558;2022-12-18T04:39:18;0.40;43.40
30288;DHT22;17103;48.316;11.558;2022-12-18T04:41:46;0.40;43.50
30288;DHT22;17103;48.316;11.558;2022-12-18T04:44:11;0.40;43.50
30288;DHT22;17103;48.316;11.558;2022-12-18T04:46:38;0.40;43.50
30288;DHT22;17103;48.316;11.558;2022-12-18T04:49:04;0.40;43.50
30288;DHT22;17103;48.316;11.558;2022-12-18T04:51:29;0.40;43.50
30288;DHT22;17103;48.316;11.558;2022-12-18T04:53:56;0.40;43.60
30288;DHT22;17103;48.316;11.558;2022-12-18T04:56:21;0.40;43.60
30288;DHT22;17103;48.316;11.558;2022-12-18T04:58:47;0.40;43.60
30288;DHT22;17103;48.316;11.558;2022-12-18T05:01:14;0.50;43.70
30288;DHT22;17103;48.316;11.558;2022-12-18T05:03:40;0.50;43.70
30288;DHT22;17103;48.316;11.558;2022-12-18T05:06:08;0.50;43.70
30288;DHT22;17103;48.316;11.558;2022-12-18T05:08:34;0.50;43.70
30288;DHT22;17103;48.316;11.558;2022-12-18T05:11:11;0.50;43.70
30288;DHT22;17103;48.316;11.558;2022-12-18T05:13:37;0.50;43.70
30288;DHT22;17103;48.316;11.558;2022-12-18T05:16:03;0.50;43.70
30288;DHT22;17103;48.316;11.558;2022-12-18T05:18:29;0.50;43.70
30288;DHT22;17103;48.316;11.558;2022-12-18T05:20:55;0.60;43.80
30288;DHT22;17103;48.316;11.558;2022-12-18T05:23:22;0.60;43.80
30288;DHT22;17103;48.316;11.558;2022-12-18T05:25:56;0.60;43.80
30288;DHT22;17103;48.316;11.558;2022-12-18T05:28:23;0.60;43.80
30288;DHT22;17103;48.316;11.558;2022-12-18T05:30:56;1.10;44.10
30288;DHT22;17103;48.316;11.558;2022-12-18T05:33:23;0.60;43.80
30288;DHT22;17103;48.316;11.558;2022-12-18T05:36:09;0.60;43.80
30288;DHT22;17103;48.316;11.558;2022-12-18T05:38:38;0.60;43.80
30288;DHT22;17103;48.316;11.558;2022-12-18T05:41:05;0.60;43.80
30288;DHT22;17103;48.316;11.558;2022-12-18T05:43:33;0.60;43.70
30288;DHT22;17103;48.316;11.558;2022-12-18T05:46:06;0.70;43.80
30288;DHT22;17103;48.316;11.558;2022-12-18T05:48:33;0.60;43.80
30288;DHT22;17103;48.316;11.558;2022-12-18T05:51:04;0.60;43.80
30288;DHT22;17103;48.316;11.558;2022-12-18T05:53:31;0.60;43.80
30288;DHT22;17103;48.316;11.558;2022-12-18T05:56:00;0.70;43.90
30288;DHT22;17103;48.316;11.558;2022-12-18T05:58:26;0.70;43.90
30288;DHT22;17103;48.316;11.558;2022-12-18T06:00:52;0.70;43.90
30288;DHT22;17103;48.316;11.558;2022-12-18T06:03:18;0.70;43.90
30288;DHT22;17103;48.316;11.558;2022-12-18T06:05:44;0.70;43.80
30288;DHT22;17103;48.316;11.558;2022-12-18T06:08:11;0.70;43.80
30288;DHT22;17103;48.316;11.558;2022-12-18T06:10:38;0.70;43.80
30288;DHT22;17103;48.316;11.558;2022-12-18T06:13:04;0.70;43.80
30288;DHT22;17103;48.316;11.558;2022-12-18T06:15:30;0.80;43.80
30288;DHT22;17103;48.316;11.558;2022-12-18T06:17:56;0.80;43.80
30288;DHT22;17103;48.316;11.558;2022-12-18T06:20:22;0.80;43.80
30288;DHT22;17103;48.316;11.558;2022-12-18T06:22:48;0.80;43.80
30288;DHT22;17103;48.316;11.558;2022-12-18T06:25:14;1.60;44.30
30288;DHT22;17103;48.316;11.558;2022-12-18T06:27:40;0.80;43.70
30288;DHT22;17103;48.316;11.558;2022-12-18T06:30:06;0.80;43.70
30288;DHT22;17103;48.316;11.558;2022-12-18T06:32:32;0.80;43.70
30288;DHT22;17103;48.316;11.558;2022-12-18T06:34:57;0.80;43.70
30288;DHT22;17103;48.316;11.558;2022-12-18T06:37:23;0.80;43.70
30288;DHT22;17103;48.316;11.558;2022-12-18T06:39:53;0.80;43.70
30288;DHT22;17103;48.316;11.558;2022-12-18T06:42:19;0.80;43.80
30288;DHT22;17103;48.316;11.558;2022-12-18T06:44:44;0.70;43.60
30288;DHT22;17103;48.316;11.558;2022-12-18T06:47:13;0.70;43.60
30288;DHT22;17103;48.316;11.558;2022-12-18T06:49:38;0.70;43.60
30288;DHT22;17103;48.316;11.558;2022-12-18T06:52:04;0.70;43.70
30288;DHT22;17103;48.316;11.558;2022-12-18T06:54:30;0.70;43.70
30288;DHT22;17103;48.316;11.558;2022-12-18T06:56:55;0.70;43.70
30288;DHT22;17103;48.316;11.558;2022-12-18T06:59:21;0.70;43.80
30288;DHT22;17103;48.316;11.558;2022-12-18T07:01:47;0.70;43.80
30288;DHT22;17103;48.316;11.558;2022-12-18T07:04:12;0.70;43.90
30288;DHT22;17103;48.316;11.558;2022-12-18T07:06:38;0.70;43.80
30288;DHT22;17103;48.316;11.558;2022-12-18T07:09:03;0.70;43.90
30288;DHT22;17103;48.316;11.558;2022-12-18T07:11:29;0.70;43.90
30288;DHT22;17103;48.316;11.558;2022-12-18T07:13:57;0.70;43.90
30288;DHT22;17103;48.316;11.558;2022-12-18T07:16:25;0.70;43.90
30288;DHT22;17103;48.316;11.558;2022-12-18T07:18:53;0.70;43.90
30288;DHT22;17103;48.316;11.558;2022-12-18T07:21:19;0.70;43.90
30288;DHT22;17103;48.316;11.558;2022-12-18T07:23:45;0.70;43.90
30288;DHT22;17103;48.316;11.558;2022-12-18T07:26:16;0.70;43.80
30288;DHT22;17103;48.316;11.558;2022-12-18T07:28:42;0.70;43.80
30288;DHT22;17103;48.316;11.558;2022-12-18T07:31:13;0.70;43.70
30288;DHT22;17103;48.316;11.558;2022-12-18T07:33:41;0.70;43.70
30288;DHT22;17103;48.316;11.558;2022-12-18T07:36:07;0.70;43.70
30288;DHT22;17103;48.316;11.558;2022-12-18T07:38:35;0.70;43.70
30288;DHT22;17103;48.316;11.558;2022-12-18T07:41:01;0.70;43.70
30288;DHT22;17103;48.316;11.558;2022-12-18T07:43:29;0.70;43.70
30288;DHT22;17103;48.316;11.558;2022-12-18T07:45:55;0.70;44.10
30288;DHT22;17103;48.316;11.558;2022-12-18T07:48:20;0.70;43.70
30288;DHT22;17103;48.316;11.558;2022-12-18T07:50:46;0.70;43.80
30288;DHT22;17103;48.316;11.558;2022-12-18T07:53:12;0.70;43.80
30288;DHT22;17103;48.316;11.558;2022-12-18T07:55:37;0.70;43.70
30288;DHT22;17103;48.316;11.558;2022-12-18T07:58:04;0.70;43.70
30288;DHT22;17103;48.316;11.558;2022-12-18T08:00:30;0.70;43.70
30288;DHT22;17103;48.316;11.558;2022-12-18T08:02:56;0.70;43.70
30288;DHT22;17103;48.316;11.558;2022-12-18T08:05:22;0.70;43.60
30288;DHT22;17103;48.316;11.558;2022-12-18T08:07:49;0.80;43.70
30288;DHT22;17103;48.316;11.558;2022-12-18T08:10:14;0.70;43.60
30288;DHT22;17103;48.316;11.558;2022-12-18T08:12:40;0.80;43.70
30288;DHT22;17103;48.316;11.558;2022-12-18T08:15:06;0.80;43.70
30288;DHT22;17103;48.316;11.558;2022-12-18T08:17:32;0.80;43.70
30288;DHT22;17103;48.316;11.558;2022-12-18T08:19:57;0.80;43.60
30288;DHT22;17103;48.316;11.558;2022-12-18T08:22:23;0.80;43.50
30288;DHT22;17103;48.316;11.558;2022-12-18T08:24:49;0.80;43.50
30288;DHT22;17103;48.316;11.558;2022-12-18T08:27:14;0.80;43.40
30288;DHT22;17103;48.316;11.558;2022-12-18T08:29:40;0.80;43.30
30288;DHT22;17103;48.316;11.558;2022-12-18T08:32:05;0.80;43.30
30288;DHT22;17103;48.316;11.558;2022-12-18T08:34:31;0.80;43.20
30288;DHT22;17103;48.316;11.558;2022-12-18T08:36:56;0.80;43.20
30288;DHT22;17103;48.316;11.558;2022-12-18T08:39:22;0.80;43.20
30288;DHT22;17103;48.316;11.558;2022-12-18T08:41:47;0.80;43.20
30288;DHT22;17103;48.316;11.558;2022-12-18T08:44:33;0.80;43.20
30288;DHT22;17103;48.316;11.558;2022-12-18T08:47:08;0.80;43.20
30288;DHT22;17103;48.316;11.558;2022-12-18T08:49:34;0.90;43.30
30288;DHT22;17103;48.316;11.558;2022-12-18T08:52:00;0.90;43.30
30288;DHT22;17103;48.316;11.558;2022-12-18T08:54:29;0.90;43.30
30288;DHT22;17103;48.316;11.558;2022-12-18T08:56:54;0.90;43.30
30288;DHT22;17103;48.316;11.558;2022-12-18T08:59:20;0.90;43.30
30288;DHT22;17103;48.316;11.558;2022-12-18T09:01:46;0.90;43.20
30288;DHT22;17103;48.316;11.558;2022-12-18T09:04:12;0.90;43.20
30288;DHT22;17103;48.316;11.558;2022-12-18T09:06:39;1.00;43.30
30288;DHT22;17103;48.316;11.558;2022-12-18T09:09:06;1.00;43.30
30288;DHT22;17103;48.316;11.558;2022-12-18T09:11:32;1.00;43.30
30288;DHT22;17103;48.316;11.558;2022-12-18T09:14:00;1.00;43.20
30288;DHT22;17103;48.316;11.558;2022-12-18T09:16:27;1.00;43.20
30288;DHT22;17103;48.316;11.558;2022-12-18T09:18:55;1.10;43.20
30288;DHT22;17103;48.316;11.558;2022-12-18T09:21:25;1.10;43.20
30288;DHT22;17103;48.316;11.558;2022-12-18T09:23:52;1.10;43.20
30288;DHT22;17103;48.316;11.558;2022-12-18T09:26:18;1.10;43.10
30288;DHT22;17103;48.316;11.558;2022-12-18T09:28:44;1.10;43.10
30288;DHT22;17103;48.316;11.558;2022-12-18T09:31:12;1.10;43.10
30288;DHT22;17103;48.316;11.558;2022-12-18T09:33:38;1.20;43.20
30288;DHT22;17103;48.316;11.558;2022-12-18T09:36:06;1.20;43.20
30288;DHT22;17103;48.316;11.558;2022-12-18T09:38:33;1.20;43.20
30288;DHT22;17103;48.316;11.558;2022-12-18T09:41:46;1.30;43.20
30288;DHT22;17103;48.316;11.558;2022-12-18T09:43:52;2.00;43.70
30288;DHT22;17103;48.316;11.558;2022-12-18T09:46:23;1.40;43.10
30288;DHT22;17103;48.316;11.558;2022-12-18T09:48:56;1.40;42.90
30288;DHT22;17103;48.316;11.558;2022-12-18T09:51:32;1.40;42.80
30288;DHT22;17103;48.316;11.558;2022-12-18T09:54:07;1.40;42.70
30288;DHT22;17103;48.316;11.558;2022-12-18T09:56:41;1.40;42.60
30288;DHT22;17103;48.316;11.558;2022-12-18T09:59:19;1.40;42.60
30288;DHT22;17103;48.316;11.558;2022-12-18T10:01:46;1.40;42.50
30288;DHT22;17103;48.316;11.558;2022-12-18T10:04:13;1.50;42.60
30288;DHT22;17103;48.316;11.558;2022-12-18T10:06:49;1.50;42.50
30288;DHT22;17103;48.316;11.558;2022-12-18T10:12:22;1.50;42.40
30288;DHT22;17103;48.316;11.558;2022-12-18T10:17:51;1.50;42.30
30288;DHT22;17103;48.316;11.558;2022-12-18T10:20:37;1.40;42.10
30288;DHT22;17103;48.316;11.558;2022-12-18T10:25:55;1.40;42.10
30288;DHT22;17103;48.316;11.558;2022-12-18T10:28:24;1.50;42.10
30288;DHT22;17103;48.316;11.558;2022-12-18T10:30:52;1.40;42.00
30288;DHT22;17103;48.316;11.558;2022-12-18T10:33:20;1.40;41.90
30288;DHT22;17103;48.316;11.558;2022-12-18T10:35:49;1.40;41.80
30288;DHT22;17103;48.316;11.558;2022-12-18T10:48:47;1.20;41.70
30288;DHT22;17103;48.316;11.558;2022-12-18T10:51:43;1.20;41.80
30288;DHT22;17103;48.316;11.558;2022-12-18T10:54:19;1.20;42.10
30288;DHT22;17103;48.316;11.558;2022-12-18T10:56:46;1.20;42.20
30288;DHT22;17103;48.316;11.558;2022-12-18T10:59:15;1.20;42.20
30288;DHT22;17103;48.316;11.558;2022-12-18T11:01:53;1.30;42.40
30288;DHT22;17103;48.316;11.558;2022-12-18T11:04:23;1.30;42.40
30288;DHT22;17103;48.316;11.558;2022-12-18T11:09:23;1.40;42.40
30288;DHT22;17103;48.316;11.558;2022-12-18T11:11:58;1.40;42.30
30288;DHT22;17103;48.316;11.558;2022-12-18T11:14:32;1.40;42.20
30288;DHT22;17103;48.316;11.558;2022-12-18T11:17:00;1.40;42.10
30288;DHT22;17103;48.316;11.558;2022-12-18T11:21:55;1.50;42.20
30288;DHT22;17103;48.316;11.558;2022-12-18T11:24:35;1.50;42.20
30288;DHT22;17103;48.316;11.558;2022-12-18T11:27:05;1.60;42.20
30288;DHT22;17103;48.316;11.558;2022-12-18T11:29:37;1.90;42.40
30288;DHT22;17103;48.316;11.558;2022-12-18T11:34:55;1.70;42.30
30288;DHT22;17103;48.316;11.558;2022-12-18T11:37:25;1.70;42.30
30288;DHT22;17103;48.316;11.558;2022-12-18T11:39:59;1.70;42.30
30288;DHT22;17103;48.316;11.558;2022-12-18T11:50:20;1.90;42.30
30288;DHT22;17103;48.316;11.558;2022-12-18T11:52:47;1.90;42.30
30288;DHT22;17103;48.316;11.558;2022-12-18T11:55:39;1.90;42.30
30288;DHT22;17103;48.316;11.558;2022-12-18T11:58:27;2.00;42.30
30288;DHT22;17103;48.316;11.558;2022-12-18T12:07:01;2.10;42.20
30288;DHT22;17103;48.316;11.558;2022-12-18T12:15:05;2.20;42.20
30288;DHT22;17103;48.316;11.558;2022-12-18T12:17:50;2.80;42.60
30288;DHT22;17103;48.316;11.558;2022-12-18T12:20:37;2.10;42.10
30288;DHT22;17103;48.316;11.558;2022-12-18T12:26:42;2.20;42.30
30288;DHT22;17103;48.316;11.558;2022-12-18T12:30:05;2.20;42.20
30288;DHT22;17103;48.316;11.558;2022-12-18T12:32:31;2.20;42.10
30288;DHT22;17103;48.316;11.558;2022-12-18T12:35:13;2.30;42.20
30288;DHT22;17103;48.316;11.558;2022-12-18T12:40:59;2.30;42.00
30288;DHT22;17103;48.316;11.558;2022-12-18T12:43:41;2.30;42.10
30288;DHT22;17103;48.316;11.558;2022-12-18T12:46:12;2.30;42.10
30288;DHT22;17103;48.316;11.558;2022-12-18T12:51:26;2.30;42.10
30288;DHT22;17103;48.316;11.558;2022-12-18T12:53:56;2.30;42.00
30288;DHT22;17103;48.316;11.558;2022-12-18T12:56:22;2.30;42.00
30288;DHT22;17103;48.316;11.558;2022-12-18T12:59:56;2.30;42.00
30288;DHT22;17103;48.316;11.558;2022-12-18T13:01:57;2.30;42.00
30288;DHT22;17103;48.316;11.558;2022-12-18T13:04:45;2.30;42.00
30288;DHT22;17103;48.316;11.558;2022-12-18T13:07:22;2.30;42.00
30288;DHT22;17103;48.316;11.558;2022-12-18T13:15:39;2.40;42.20
30288;DHT22;17103;48.316;11.558;2022-12-18T13:18:23;2.40;42.20
30288;DHT22;17103;48.316;11.558;2022-12-18T13:20:51;2.40;42.10
30288;DHT22;17103;48.316;11.558;2022-12-18T13:23:32;2.40;42.20
30288;DHT22;17103;48.316;11.558;2022-12-18T13:28:52;2.50;42.30
30288;DHT22;17103;48.316;11.558;2022-12-18T13:34:16;2.50;42.20
30288;DHT22;17103;48.316;11.558;2022-12-18T13:36:43;2.50;42.20
30288;DHT22;17103;48.316;11.558;2022-12-18T13:39:32;2.50;42.20
30288;DHT22;17103;48.316;11.558;2022-12-18T13:44:33;2.50;42.20
30288;DHT22;17103;48.316;11.558;2022-12-18T13:47:03;2.50;42.10
30288;DHT22;17103;48.316;11.558;2022-12-18T13:49:39;2.50;42.00
30288;DHT22;17103;48.316;11.558;2022-12-18T13:52:22;2.50;42.00
30288;DHT22;17103;48.316;11.558;2022-12-18T13:54:57;2.50;42.00
30288;DHT22;17103;48.316;11.558;2022-12-18T13:57:32;2.50;42.00
30288;DHT22;17103;48.316;11.558;2022-12-18T14:00:24;2.90;42.20
30288;DHT22;17103;48.316;11.558;2022-12-18T14:02:51;2.50;41.80
30288;DHT22;17103;48.316;11.558;2022-12-18T14:05:30;2.50;41.80
30288;DHT22;17103;48.316;11.558;2022-12-18T14:08:21;2.50;41.70
30288;DHT22;17103;48.316;11.558;2022-12-18T14:10:48;2.50;41.70
30288;DHT22;17103;48.316;11.558;2022-12-18T14:13:38;2.40;41.60
30288;DHT22;17103;48.316;11.558;2022-12-18T14:16:14;2.40;41.60
30288;DHT22;17103;48.316;11.558;2022-12-18T14:18:55;2.40;41.70
30288;DHT22;17103;48.316;11.558;2022-12-18T14:21:28;2.40;41.70
30288;DHT22;17103;48.316;11.558;2022-12-18T14:26:43;2.30;41.70
30288;DHT22;17103;48.316;11.558;2022-12-18T14:29:27;2.30;41.70
30288;DHT22;17103;48.316;11.558;2022-12-18T14:34:35;2.20;41.80
30288;DHT22;17103;48.316;11.558;2022-12-18T14:37:03;2.20;41.80
30288;DHT22;17103;48.316;11.558;2022-12-18T14:39:30;2.10;41.80
30288;DHT22;17103;48.316;11.558;2022-12-18T14:42:03;2.10;41.80
30288;DHT22;17103;48.316;11.558;2022-12-18T14:44:29;2.10;41.70
30288;DHT22;17103;48.316;11.558;2022-12-18T14:46:55;2.10;41.80
30288;DHT22;17103;48.316;11.558;2022-12-18T14:49:24;2.10;41.80
30288;DHT22;17103;48.316;11.558;2022-12-18T14:51:57;2.10;41.80
30288;DHT22;17103;48.316;11.558;2022-12-18T14:54:26;2.10;41.70
30288;DHT22;17103;48.316;11.558;2022-12-18T14:57:04;2.10;41.70
30288;DHT22;17103;48.316;11.558;2022-12-18T14:59:37;2.00;41.70
30288;DHT22;17103;48.316;11.558;2022-12-18T15:02:23;2.00;41.70
30288;DHT22;17103;48.316;11.558;2022-12-18T15:07:43;2.00;41.70
30288;DHT22;17103;48.316;11.558;2022-12-18T15:10:17;2.00;41.80
30288;DHT22;17103;48.316;11.558;2022-12-18T15:12:49;2.00;41.70
30288;DHT22;17103;48.316;11.558;2022-12-18T15:18:00;1.90;41.70
30288;DHT22;17103;48.316;11.558;2022-12-18T15:20:27;1.90;41.80
30288;DHT22;17103;48.316;11.558;2022-12-18T15:22:53;1.90;41.80
30288;DHT22;17103;48.316;11.558;2022-12-18T15:25:33;1.80;41.70
30288;DHT22;17103;48.316;11.558;2022-12-18T15:27:59;1.80;41.80
30288;DHT22;17103;48.316;11.558;2022-12-18T15:30:26;1.80;41.80
30288;DHT22;17103;48.316;11.558;2022-12-18T15:32:55;1.80;41.90
30288;DHT22;17103;48.316;11.558;2022-12-18T15:35:38;2.30;42.40
30288;DHT22;17103;48.316;11.558;2022-12-18T15:38:04;1.70;42.00
30288;DHT22;17103;48.316;11.558;2022-12-18T15:40:29;1.70;42.00
30288;DHT22;17103;48.316;11.558;2022-12-18T15:42:55;1.70;42.00
30288;DHT22;17103;48.316;11.558;2022-12-18T15:45:40;1.70;42.00
30288;DHT22;17103;48.316;11.558;2022-12-18T15:48:37;1.70;42.00
30288;DHT22;17103;48.316;11.558;2022-12-18T15:51:07;1.60;42.00
30288;DHT22;17103;48.316;11.558;2022-12-18T15:53:35;1.60;42.00
30288;DHT22;17103;48.316;11.558;2022-12-18T15:56:01;1.60;42.10
30288;DHT22;17103;48.316;11.558;2022-12-18T15:58:45;1.60;42.10
30288;DHT22;17103;48.316;11.558;2022-12-18T16:01:12;1.60;42.10
30288;DHT22;17103;48.316;11.558;2022-12-18T16:03:38;1.60;42.10
30288;DHT22;17103;48.316;11.558;2022-12-18T16:06:04;1.60;42.10
30288;DHT22;17103;48.316;11.558;2022-12-18T16:08:30;1.50;42.10
30288;DHT22;17103;48.316;11.558;2022-12-18T16:10:56;1.50;42.10
30288;DHT22;17103;48.316;11.558;2022-12-18T16:13:22;1.50;42.10
30288;DHT22;17103;48.316;11.558;2022-12-18T16:15:48;1.50;42.10
30288;DHT22;17103;48.316;11.558;2022-12-18T16:18:14;1.50;42.10
30288;DHT22;17103;48.316;11.558;2022-12-18T16:20:40;1.50;42.10
30288;DHT22;17103;48.316;11.558;2022-12-18T16:23:06;1.50;42.20
30288;DHT22;17103;48.316;11.558;2022-12-18T16:25:34;1.50;42.20
30288;DHT22;17103;48.316;11.558;2022-12-18T16:27:59;1.40;42.10
30288;DHT22;17103;48.316;11.558;2022-12-18T16:30:28;1.40;42.10
30288;DHT22;17103;48.316;11.558;2022-12-18T16:32:54;1.40;42.10
30288;DHT22;17103;48.316;11.558;2022-12-18T16:35:21;2.10;42.70
30288;DHT22;17103;48.316;11.558;2022-12-18T16:37:47;1.40;42.10
30288;DHT22;17103;48.316;11.558;2022-12-18T16:40:14;0.80;41.70
30288;DHT22;17103;48.316;11.558;2022-12-18T16:42:42;1.60;42.40
30288;DHT22;17103;48.316;11.558;2022-12-18T16:45:24;1.40;42.20
30288;DHT22;17103;48.316;11.558;2022-12-18T16:47:50;1.30;42.20
30288;DHT22;17103;48.316;11.558;2022-12-18T16:50:17;1.30;42.20
30288;DHT22;17103;48.316;11.558;2022-12-18T16:52:42;1.30;42.30
30288;DHT22;17103;48.316;11.558;2022-12-18T16:55:08;1.30;42.30
30288;DHT22;17103;48.316;11.558;2022-12-18T16:57:34;1.30;42.40
30288;DHT22;17103;48.316;11.558;2022-12-18T17:00:00;1.20;42.30
30288;DHT22;17103;48.316;11.558;2022-12-18T17:02:27;1.20;42.30
30288;DHT22;17103;48.316;11.558;2022-12-18T17:04:56;1.20;42.30
30288;DHT22;17103;48.316;11.558;2022-12-18T17:07:23;1.20;42.40
30288;DHT22;17103;48.316;11.558;2022-12-18T17:09:49;1.20;42.40
30288;DHT22;17103;48.316;11.558;2022-12-18T17:12:19;1.20;42.40
30288;DHT22;17103;48.316;11.558;2022-12-18T17:14:54;1.20;42.40
30288;DHT22;17103;48.316;11.558;2022-12-18T17:17:19;1.20;42.40
30288;DHT22;17103;48.316;11.558;2022-12-18T17:19:45;1.20;42.50
30288;DHT22;17103;48.316;11.558;2022-12-18T17:22:11;1.20;42.60
30288;DHT22;17103;48.316;11.558;2022-12-18T17:24:37;1.20;42.80
30288;DHT22;17103;48.316;11.558;2022-12-18T17:27:03;1.30;42.80
30288;DHT22;17103;48.316;11.558;2022-12-18T17:29:29;1.30;42.70
30288;DHT22;17103;48.316;11.558;2022-12-18T17:31:55;1.30;42.60
30288;DHT22;17103;48.316;11.558;2022-12-18T17:34:21;1.30;42.60
30288;DHT22;17103;48.316;11.558;2022-12-18T17:36:46;1.30;42.60
30288;DHT22;17103;48.316;11.558;2022-12-18T17:39:16;1.30;42.50
30288;DHT22;17103;48.316;11.558;2022-12-18T17:41:43;1.30;42.50